Time;durP1;ratioP1;P1;durP2;ratioP2;P2;SDS_P1;SDS_P2;PMS_P1;PMS_P2;Temp;Humidity;BMP_temperature;BMP_pressure;BME280_temperature;BME280_humidity;BME280_pressure;Samples;Min_cycle;Max_cycle;Signal;HPM_P1;HPM_P2
2023/10/16 00:02:16;;;;;;;;;;;;;;;6.60;100.00;102239.09;4931229;29;20008;-79
2023/10/16 00:05:08;;;;;;;;;;;;;;;6.60;100.00;102238.25;4914764;29;20650;-79
2023/10/16 00:07:56;;;;;;;;;;;;;;;6.58;100.00;102230.34;4928634;29;19927;-79
2023/10/16 00:10:43;;;;;;;;;;;;;;;6.56;100.00;102234.75;4929134;28;19942;-79
2023/10/16 00:13:29;;;;;;;;;;;;;;;6.53;100.00;102232.13;4927934;29;19937;-77
2023/10/16 00:16:16;;;;;;;;;;;;;;;6.49;100.00;102228.63;4915157;28;20501;-79
2023/10/16 00:19:09;;;;;;;;;;;;;;;6.44;100.00;102230.44;4914913;28;19993;-79
2023/10/16 00:21:57;;;;;;;;;;;;;;;6.42;100.00;102236.59;4913512;29;19931;-79
2023/10/16 00:24:46;;;;;;;;;;;;;;;6.38;100.00;102238.38;4928462;29;20465;-79
2023/10/16 00:27:31;;;;;;;;;;;;;;;6.36;100.00;102238.38;4916569;29;19930;-79
2023/10/16 00:30:17;;;;;;;;;;;;;;;6.37;100.00;102237.50;4913995;29;19935;-79
2023/10/16 00:33:04;;;;;;;;;;;;;;;6.37;100.00;102252.38;4913817;29;20500;-79
2023/10/16 00:35:53;;;;;;;;;;;;;;;6.41;100.00;102258.50;4929397;28;20009;-79
2023/10/16 00:38:38;;;;;;;;;;;;;;;6.43;100.00;102269.91;4913587;29;20017;-79
2023/10/16 00:41:25;;;;;;;;;;;;;;;6.44;100.00;102269.91;4927227;29;19970;-79
2023/10/16 00:44:10;;;;;;;;;;;;;;;6.48;100.00;102268.16;4929313;29;19930;-79
2023/10/16 00:46:56;;;;;;;;;;;;;;;6.49;100.00;102251.47;4927956;29;20402;-79
2023/10/16 00:49:42;;;;;;;;;;;;;;;6.52;100.00;102248.81;4913337;29;19930;-79
2023/10/16 00:52:27;;;;;;;;;;;;;;;6.55;100.00;102247.91;4914216;29;19990;-79
2023/10/16 00:55:13;;;;;;;;;;;;;;;6.56;100.00;102236.50;4913425;29;20310;-79
2023/10/16 00:57:58;;;;;;;;;;;;;;;6.56;100.00;102226.88;4927527;29;19935;-79
2023/10/16 01:00:48;;;;;;;;;;;;;;;6.58;100.00;102238.25;4913354;29;19926;-80
2023/10/16 01:03:34;;;;;;;;;;;;;;;6.56;100.00;102229.50;4912830;29;20052;-79
2023/10/16 01:06:27;;;;;;;;;;;;;;;6.55;100.00;102224.22;4902947;29;20021;-79
2023/10/16 01:09:24;;;;;;;;;;;;;;;6.52;100.00;102227.75;4927915;29;19930;-80
2023/10/16 01:12:11;;;;;;;;;;;;;;;6.48;100.00;102223.41;4929505;28;19942;-79
2023/10/16 01:14:57;;;;;;;;;;;;;;;6.46;100.00;102228.69;4927198;28;20327;-79
2023/10/16 01:17:43;;;;;;;;;;;;;;;6.44;100.00;102225.19;4928762;29;19930;-80
2023/10/16 01:20:28;;;;;;;;;;;;;;;6.44;100.00;102230.44;4927757;29;19970;-79
2023/10/16 01:23:17;;;;;;;;;;;;;;;6.44;100.00;102235.72;4928353;29;19949;-80
2023/10/16 01:26:03;;;;;;;;;;;;;;;6.44;100.00;102227.81;4928327;28;19933;-80
2023/10/16 01:28:48;;;;;;;;;;;;;;;6.44;100.00;102224.31;4907829;29;19958;-80
2023/10/16 01:31:36;;;;;;;;;;;;;;;6.44;100.00;102232.19;4928990;29;19930;-80
2023/10/16 01:34:22;;;;;;;;;;;;;;;6.45;100.00;102231.31;4927860;29;19927;-80
2023/10/16 01:37:09;;;;;;;;;;;;;;;6.46;100.00;102219.91;4927269;29;19930;-79
2023/10/16 01:39:56;;;;;;;;;;;;;;;6.48;100.00;102215.53;4929375;29;20538;-79
2023/10/16 01:42:41;;;;;;;;;;;;;;;6.49;100.00;102222.53;4913545;29;19930;-79
2023/10/16 01:45:30;;;;;;;;;;;;;;;6.49;100.00;102223.38;4927791;29;19935;-79
2023/10/16 01:48:19;;;;;;;;;;;;;;;6.50;100.00;102219.00;4926969;29;19945;-79
2023/10/16 01:51:11;;;;;;;;;;;;;;;6.48;100.00;102220.78;4927013;29;19930;-79
2023/10/16 01:53:57;;;;;;;;;;;;;;;6.47;100.00;102221.63;4927110;29;20044;-79
2023/10/16 01:56:42;;;;;;;;;;;;;;;6.45;100.00;102215.53;4925891;29;19934;-79
2023/10/16 01:59:28;;;;;;;;;;;;;;;6.45;100.00;102215.53;4912250;29;20143;-79
2023/10/16 02:02:14;;;;;;;;;;;;;;;6.45;100.00;102215.53;4911569;28;20440;-79
2023/10/16 02:04:59;;;;;;;;;;;;;;;6.44;100.00;102217.28;4927053;28;19942;-79
2023/10/16 02:07:45;;;;;;;;;;;;;;;6.44;100.00;102214.66;4926951;29;19990;-80
2023/10/16 02:10:30;;;;;;;;;;;;;;;6.45;100.00;102215.53;4914809;29;19954;-80
2023/10/16 02:13:17;;;;;;;;;;;;;;;6.46;100.00;102209.38;4925482;29;19934;-80
2023/10/16 02:16:06;;;;;;;;;;;;;;;6.49;100.00;102219.91;4890407;29;20693;-80
2023/10/16 02:18:55;;;;;;;;;;;;;;;6.51;100.00;102219.00;4893729;28;19927;-80
2023/10/16 02:21:41;;;;;;;;;;;;;;;6.54;100.00;102231.25;4889699;29;19990;-79
2023/10/16 02:24:27;;;;;;;;;;;;;;;6.58;100.00;102211.06;4890114;29;19938;-79
2023/10/16 02:27:12;;;;;;;;;;;;;;;6.61;100.00;102206.66;4888009;29;19935;-78
2023/10/16 02:30:00;;;;;;;;;;;;;;;6.64;100.00;102211.88;4888957;29;19963;-79
2023/10/16 02:32:45;;;;;;;;;;;;;;;6.66;100.00;102217.16;4889482;29;20663;-79
2023/10/16 02:35:31;;;;;;;;;;;;;;;6.68;100.00;102225.91;4893966;28;19927;-79
2023/10/16 02:38:29;;;;;;;;;;;;;;;6.69;100.00;102224.16;4891001;28;20495;-79
2023/10/16 02:41:15;;;;;;;;;;;;;;;6.71;100.00;102232.91;4889883;29;20769;-79
2023/10/16 02:44:01;;;;;;;;;;;;;;;6.74;100.00;102232.88;4890744;29;19931;-79
2023/10/16 02:46:47;;;;;;;;;;;;;;;6.77;100.00;102231.09;4889847;29;19938;-79
2023/10/16 02:49:33;;;;;;;;;;;;;;;6.80;100.00;102230.19;4902440;28;19935;-78
2023/10/16 02:52:19;;;;;;;;;;;;;;;6.81;100.00;102233.72;4890509;29;20023;-78
2023/10/16 02:55:06;;;;;;;;;;;;;;;6.83;100.00;102230.19;4891714;29;19942;-77
2023/10/16 02:57:51;;;;;;;;;;;;;;;6.82;100.00;102231.09;4890325;29;19935;-78
2023/10/16 03:00:43;;;;;;;;;;;;;;;6.83;100.00;102232.81;4890081;28;19954;-78
2023/10/16 03:03:28;;;;;;;;;;;;;;;6.84;100.00;102237.19;4892347;29;20341;-78
2023/10/16 03:06:15;;;;;;;;;;;;;;;6.86;100.00;102226.66;4889745;29;19931;-78
2023/10/16 03:09:14;;;;;;;;;;;;;;;6.87;100.00;102221.38;4890081;29;19928;-78
2023/10/16 03:12:08;;;;;;;;;;;;;;;6.86;100.00;102232.78;4889827;29;20065;-78
2023/10/16 03:14:58;;;;;;;;;;;;;;;6.83;100.00;102227.56;4891683;29;19931;-79
2023/10/16 03:17:43;;;;;;;;;;;;;;;6.81;100.00;102231.94;4889957;29;19936;-78
2023/10/16 03:20:35;;;;;;;;;;;;;;;6.79;100.00;102233.72;4891549;29;19937;-78
2023/10/16 03:23:21;;;;;;;;;;;;;;;6.78;100.00;102235.50;4892853;29;19931;-78
2023/10/16 03:26:08;;;;;;;;;;;;;;;6.75;100.00;102234.66;4890942;29;19942;-78
2023/10/16 03:28:56;;;;;;;;;;;;;;;6.72;100.00;102232.00;4892941;29;19950;-78
2023/10/16 03:31:42;;;;;;;;;;;;;;;6.69;100.00;102235.53;4890875;29;19962;-78
2023/10/16 03:34:28;;;;;;;;;;;;;;;6.65;100.00;102229.44;4879073;29;19985;-78
2023/10/16 03:37:15;;;;;;;;;;;;;;;6.65;100.00;102233.84;4883105;29;19964;-78
2023/10/16 03:40:09;;;;;;;;;;;;;;;6.64;100.00;102232.94;4896184;29;19931;-78
2023/10/16 03:42:58;;;;;;;;;;;;;;;6.65;100.00;102224.16;4894793;29;20622;-77
2023/10/16 03:45:43;;;;;;;;;;;;;;;6.67;100.00;102232.06;4894903;29;21864;-78
2023/10/16 03:48:29;;;;;;;;;;;;;;;6.70;100.00;102228.53;4893454;29;20232;-78
2023/10/16 03:51:16;;;;;;;;;;;;;;;6.74;100.00;102224.97;4887301;29;19940;-77
2023/10/16 03:54:02;;;;;;;;;;;;;;;6.74;100.00;102227.59;4886736;29;20403;-77
2023/10/16 03:56:48;;;;;;;;;;;;;;;6.76;100.00;102231.97;4895496;29;20388;-77
2023/10/16 03:59:34;;;;;;;;;;;;;;;6.79;100.00;102223.19;4894494;29;20490;-77
2023/10/16 04:02:23;;;;;;;;;;;;;;;6.81;100.00;102220.56;4894923;29;20233;-77
2023/10/16 04:05:29;;;;;;;;;;;;;;;6.83;100.00;102222.28;4894802;28;19931;-77
2023/10/16 04:08:14;;;;;;;;;;;;;;;6.84;100.00;102207.34;4895635;29;19934;-78
2023/10/16 04:11:02;;;;;;;;;;;;;;;6.85;100.00;102207.34;4893483;29;19931;-78
2023/10/16 04:13:47;;;;;;;;;;;;;;;6.86;100.00;102211.72;4900579;29;19956;-78
2023/10/16 04:16:54;;;;;;;;;;;;;;;6.88;100.00;102211.72;4929038;29;19934;-77
2023/10/16 04:20:42;;;;;;;;;;;;;;;6.89;100.00;102216.09;4928799;29;19996;-78
2023/10/16 04:23:07;;;;;;;;;;;;;;;6.86;100.00;102201.19;4930424;28;19942;-78
2023/10/16 04:26:29;;;;;;;;;;;;;;;6.85;100.00;102202.09;4928305;29;19934;-78
2023/10/16 04:34:45;;;;;;;;;;;;;;;6.78;100.00;102203.03;4928279;29;20021;-78
2023/10/16 04:37:36;;;;;;;;;;;;;;;6.74;100.00;102191.63;4914418;28;19935;-78
2023/10/16 04:42:22;;;;;;;;;;;;;;;6.71;100.00;102196.06;4929494;29;20013;-78
2023/10/16 04:44:22;;;;;;;;;;;;;;;6.68;100.00;102196.06;4916802;29;20003;-78
2023/10/16 04:47:00;;;;;;;;;;;;;;;6.63;100.00;102198.72;4919247;29;19937;-78
2023/10/16 04:49:59;;;;;;;;;;;;;;;6.60;100.00;102194.38;4926667;29;19931;-78
2023/10/16 04:58:47;;;;;;;;;;;;;;;6.49;100.00;102188.31;4913459;29;20390;-78
2023/10/16 05:01:33;;;;;;;;;;;;;;;6.46;100.00;102183.06;4918119;28;20159;-79
2023/10/16 05:04:49;;;;;;;;;;;;;;;6.47;100.00;102187.44;4927283;29;19953;-78
2023/10/16 05:07:38;;;;;;;;;;;;;;;6.48;100.00;102189.22;4927598;29;20043;-78
2023/10/16 05:13:41;;;;;;;;;;;;;;;6.51;100.00;102189.19;4928528;28;19935;-79
2023/10/16 05:16:47;;;;;;;;;;;;;;;6.52;100.00;102189.19;4927357;28;20002;-79
2023/10/16 06:14:38;;;;;;;;;;;;;;;6.82;100.00;102190.72;4863914;28;1802059;-79
2023/10/16 06:17:23;;;;;;;;;;;;;;;6.78;100.00;102190.75;4918326;29;19936;-79
2023/10/16 06:20:19;;;;;;;;;;;;;;;6.78;100.00;102195.13;4925934;29;20341;-79
2023/10/16 06:23:09;;;;;;;;;;;;;;;6.79;100.00;102196.88;4902405;29;20007;-79
2023/10/16 06:25:55;;;;;;;;;;;;;;;6.80;100.00;102195.97;4926655;29;19992;-79
2023/10/16 06:28:47;;;;;;;;;;;;;;;6.81;100.00;102207.38;4926420;29;19926;-79
2023/10/16 06:31:49;;;;;;;;;;;;;;;6.83;100.00;102211.75;4913024;29;19935;-79
2023/10/16 06:34:34;;;;;;;;;;;;;;;6.89;100.00;102221.38;4918999;29;20398;-79
2023/10/16 06:37:21;;;;;;;;;;;;;;;6.92;100.00;102222.22;4926666;28;19935;-79
2023/10/16 06:40:16;;;;;;;;;;;;;;;6.95;100.00;102221.31;4919385;28;19960;-79
2023/10/16 06:43:11;;;;;;;;;;;;;;;6.97;100.00;102222.16;4925791;29;19970;-79
2023/10/16 06:45:58;;;;;;;;;;;;;;;7.01;100.00;102225.66;4927304;29;20025;-79
2023/10/16 06:48:43;;;;;;;;;;;;;;;7.05;100.00;102228.25;4928716;28;19927;-79
2023/10/16 06:51:30;;;;;;;;;;;;;;;7.10;100.00;102222.94;4925098;29;19942;-79
2023/10/16 06:54:16;;;;;;;;;;;;;;;7.16;100.00;102224.66;4926989;29;20014;-80
2023/10/16 06:57:10;;;;;;;;;;;;;;;7.20;100.00;102218.47;4912707;28;20436;-79
2023/10/16 06:59:56;;;;;;;;;;;;;;;7.25;100.00;102223.69;4927573;28;20262;-79
2023/10/16 07:02:42;;;;;;;;;;;;;;;7.30;100.00;102232.44;4925480;28;20058;-79
2023/10/16 07:05:44;;;;;;;;;;;;;;;7.32;100.00;102222.75;4925773;29;20425;-79
2023/10/16 07:08:30;;;;;;;;;;;;;;;7.38;100.00;102232.34;4913136;29;19930;-79
2023/10/16 07:11:18;;;;;;;;;;;;;;;7.41;100.00;102227.06;4926812;29;19931;-79
2023/10/16 07:14:11;;;;;;;;;;;;;;;7.47;100.00;102227.00;4913847;28;19938;-79
2023/10/16 07:16:59;;;;;;;;;;;;;;;7.50;100.00;102229.59;4930621;29;20309;-79
2023/10/16 07:19:44;;;;;;;;;;;;;;;7.53;100.00;102226.94;4916496;29;19937;-79
2023/10/16 07:22:32;;;;;;;;;;;;;;;7.57;100.00;102230.41;4930148;29;19937;-79
2023/10/16 07:25:25;;;;;;;;;;;;;;;7.58;100.00;102235.66;4915497;29;19927;-79
2023/10/16 07:28:10;;;;;;;;;;;;;;;7.61;100.00;102237.38;4917082;29;19926;-79
2023/10/16 07:30:59;;;;;;;;;;;;;;;7.63;100.00;102229.47;4930835;28;19934;-79
2023/10/16 07:33:47;;;;;;;;;;;;;;;7.64;100.00;102231.22;4931462;28;19930;-79
2023/10/16 07:36:32;;;;;;;;;;;;;;;7.65;100.00;102236.47;4929250;28;20050;-79
2023/10/16 07:39:18;;;;;;;;;;;;;;;7.66;100.00;102235.56;4930054;29;19935;-79
2023/10/16 07:42:04;;;;;;;;;;;;;;;7.69;100.00;102239.94;4930692;29;19995;-81
2023/10/16 07:44:51;;;;;;;;;;;;;;;7.71;100.00;102240.78;4928457;29;20041;-81
2023/10/16 07:47:37;;;;;;;;;;;;;;;7.72;100.00;102238.16;4929403;29;19942;-81
2023/10/16 07:50:22;;;;;;;;;;;;;;;7.74;100.00;102239.00;4930638;29;19940;-80
2023/10/16 07:53:08;;;;;;;;;;;;;;;7.80;100.00;102247.72;4930424;28;19938;-88
2023/10/16 07:55:55;;;;;;;;;;;;;;;7.82;100.00;102248.59;4931518;29;19959;-82
2023/10/16 07:58:48;;;;;;;;;;;;;;;7.87;100.00;102252.03;4930697;29;20434;-82
2023/10/16 08:01:54;;;;;;;;;;;;;;;7.91;100.00;102253.78;4928677;28;19926;-83
2023/10/16 08:04:39;;;;;;;;;;;;;;;7.97;100.00;102258.97;4915324;29;19930;-84
2023/10/16 08:07:46;;;;;;;;;;;;;;;8.01;100.00;102258.03;4914683;29;20017;-85
2023/10/16 08:10:41;;;;;;;;;;;;;;;8.07;100.00;102257.06;4930756;28;20033;-84
2023/10/16 08:13:33;;;;;;;;;;;;;;;8.14;100.00;102269.31;4928770;29;19966;-84
2023/10/16 08:16:22;;;;;;;;;;;;;;;8.18;100.00;102259.59;4928159;29;19978;-83
2023/10/16 08:19:14;;;;;;;;;;;;;;;8.20;100.00;102257.81;4915046;29;19937;-85
2023/10/16 08:22:07;;;;;;;;;;;;;;;8.25;100.00;102257.75;4929766;28;19926;-85
2023/10/16 08:24:58;;;;;;;;;;;;;;;8.28;100.00;102253.28;4928210;29;19931;-84
2023/10/16 08:27:47;;;;;;;;;;;;;;;8.34;100.00;102244.41;4928538;29;20016;-83
2023/10/16 08:30:33;;;;;;;;;;;;;;;8.37;100.00;102246.13;4916023;28;20463;-83
2023/10/16 08:33:28;;;;;;;;;;;;;;;8.42;100.00;102260.16;4930447;29;20398;-84
2023/10/16 08:36:18;;;;;;;;;;;;;;;8.47;100.00;102260.97;4929131;29;19931;-84
2023/10/16 08:39:15;;;;;;;;;;;;;;;8.50;100.00;102263.56;4930719;28;20023;-85
2023/10/16 08:42:10;;;;;;;;;;;;;;;8.54;100.00;102272.34;4912829;29;20482;-82
2023/10/16 08:45:14;;;;;;;;;;;;;;;8.59;100.00;102265.22;4927414;28;19930;-80
2023/10/16 08:48:05;;;;;;;;;;;;;;;8.63;100.00;102261.66;4905419;29;19930;-80
2023/10/16 08:50:57;;;;;;;;;;;;;;;8.66;100.00;102271.31;4914711;29;19948;-80
2023/10/16 08:53:43;;;;;;;;;;;;;;;8.71;100.00;102266.81;4916428;29;20306;-80
2023/10/16 08:56:31;;;;;;;;;;;;;;;8.75;100.00;102265.88;4928762;29;19978;-80
2023/10/16 08:59:18;;;;;;;;;;;;;;;8.80;100.00;102268.44;4929722;28;20300;-80
2023/10/16 09:02:05;;;;;;;;;;;;;;;8.82;100.00;102266.66;4899563;29;20564;-80
2023/10/16 09:04:52;;;;;;;;;;;;;;;8.86;100.00;102278.91;4900570;29;20442;-81
2023/10/16 09:07:39;;;;;;;;;;;;;;;8.88;100.00;102286.81;4908702;28;20290;-81
2023/10/16 09:10:29;;;;;;;;;;;;;;;8.89;100.00;102288.56;4910441;29;19942;-85
2023/10/16 09:13:16;;;;;;;;;;;;;;;8.85;100.00;102297.41;4899587;29;19940;-84
2023/10/16 09:16:03;;;;;;;;;;;;;;;8.83;100.00;102297.47;4906108;29;19937;-85
2023/10/16 09:18:50;;;;;;;;;;;;;;;8.81;100.00;102289.56;4911857;29;20025;-85
2023/10/16 09:21:39;;;;;;;;;;;;;;;8.81;100.00;102283.38;4910678;29;19927;-82
2023/10/16 09:24:25;;;;;;;;;;;;;;;8.87;100.00;102293.00;4925541;29;20421;-80
2023/10/16 09:27:29;;;;;;;;;;;;;;;8.91;100.00;102287.66;4923644;28;20718;-79
2023/10/16 09:30:15;;;;;;;;;;;;;;;8.98;100.00;102293.69;4901046;29;19934;-79
2023/10/16 09:33:02;;;;;;;;;;;;;;;9.04;100.00;102298.03;4908437;28;19935;-79
2023/10/16 09:35:48;;;;;;;;;;;;;;;9.10;100.00;102293.50;4924546;28;19950;-80
2023/10/16 09:38:34;;;;;;;;;;;;;;;9.18;100.00;102295.16;4924397;29;20405;-79
2023/10/16 09:44:23;;;;;;;;;;;;;;;9.23;100.00;102293.31;4926661;28;20339;-81
2023/10/16 09:47:48;;;;;;;;;;;;;;;9.24;100.00;102292.41;4906914;29;19930;-80
2023/10/16 09:50:24;;;;;;;;;;;;;;;9.23;100.00;102293.31;4924309;28;19930;-81
2023/10/16 09:53:10;;;;;;;;;;;;;;;9.25;100.00;102291.50;4919112;29;19941;-81
2023/10/16 09:55:58;;;;;;;;;;;;;;;9.26;100.00;102292.41;4915343;29;19934;-83
2023/10/16 09:58:46;;;;;;;;;;;;;;;9.28;100.00;102295.88;4909169;28;20037;-82
2023/10/16 10:01:31;;;;;;;;;;;;;;;9.34;100.00;102295.78;4909946;28;20088;-82
2023/10/16 10:04:24;;;;;;;;;;;;;;;9.41;100.00;102302.69;4911613;29;20393;-82
2023/10/16 10:07:19;;;;;;;;;;;;;;;9.50;100.00;102296.38;4911086;29;19998;-83
2023/10/16 10:13:10;;;;;;;;;;;;;;;9.47;100.00;102301.72;4915158;28;19930;-81
2023/10/16 10:15:57;;;;;;;;;;;;;;;9.49;100.00;102305.22;4907331;29;19978;-81
2023/10/16 10:18:47;;;;;;;;;;;;;;;9.52;100.00;102299.88;4910519;28;20573;-80
2023/10/16 10:21:44;;;;;;;;;;;;;;;9.54;100.00;102302.50;4922620;29;19930;-81
2023/10/16 10:24:29;;;;;;;;;;;;;;;9.57;100.00;102295.38;4898094;29;19927;-84
2023/10/16 10:27:16;;;;;;;;;;;;;;;9.61;100.00;102305.00;4923600;29;20311;-82
2023/10/16 10:30:02;;;;;;;;;;;;;;;9.63;100.00;102292.63;4909875;28;19989;-83
2023/10/16 10:32:55;;;;;;;;;;;;;;;9.67;100.00;102297.84;4905249;29;20014;-84
2023/10/16 10:35:43;;;;;;;;;;;;;;;9.68;100.00;102296.94;4905833;29;19926;-82
2023/10/16 10:38:29;;;;;;;;;;;;;;;9.70;100.00;102295.16;4921512;29;19978;-82
2023/10/16 10:41:15;;;;;;;;;;;;;;;9.72;100.00;102298.63;4921848;29;20081;-82
2023/10/16 10:44:08;;;;;;;;;;;;;;;9.74;100.00;102295.06;4910332;28;19938;-83
2023/10/16 10:46:54;;;;;;;;;;;;;;;9.81;100.00;102287.00;4920911;29;20310;-82
2023/10/16 10:49:43;;;;;;;;;;;;;;;9.84;100.00;102287.81;4908211;29;20184;-83
2023/10/16 10:52:31;;;;;;;;;;;;;;;9.90;100.00;102286.81;4924615;28;19934;-83
2023/10/16 10:55:21;;;;;;;;;;;;;;;9.96;100.00;102286.72;4924833;29;19941;-81
2023/10/16 10:58:13;;;;;;;;;;;;;;;10.01;100.00;102282.19;4922138;29;19934;-82
2023/10/16 11:04:15;;;;;;;;;;;;;;;10.17;100.00;102282.75;4910781;29;20062;-82
2023/10/16 11:07:11;;;;;;;;;;;;;;;10.25;100.00;102285.22;4921809;29;20022;-82
2023/10/16 11:09:57;;;;;;;;;;;;;;;10.31;100.00;102277.16;4895661;29;20454;-84
2023/10/16 11:12:44;;;;;;;;;;;;;;;10.32;100.00;102270.09;4921000;29;20030;-82
2023/10/16 11:15:30;;;;;;;;;;;;;;;10.38;100.00;102275.28;4908154;29;19931;-83
2023/10/16 11:18:18;;;;;;;;;;;;;;;10.42;100.00;102271.66;4912320;29;20343;-83
2023/10/16 11:21:04;;;;;;;;;;;;;;;10.49;100.00;102271.53;4915513;29;19926;-83
2023/10/16 11:23:52;;;;;;;;;;;;;;;10.55;100.00;102274.03;4922793;29;20335;-83
2023/10/16 11:26:38;;;;;;;;;;;;;;;10.61;100.00;102276.56;4907782;29;20013;-84
2023/10/16 11:29:23;;;;;;;;;;;;;;;10.65;100.00;102278.25;4904510;29;19926;-83
2023/10/16 11:32:14;;;;;;;;;;;;;;;10.70;100.00;102281.66;4905680;29;19937;-83
2023/10/16 11:35:13;;;;;;;;;;;;;;;10.73;100.00;102275.41;4922193;29;19930;-83
2023/10/16 11:38:13;;;;;;;;;;;;;;;10.76;100.00;102271.81;4920964;29;19927;-82
2023/10/16 11:41:12;;;;;;;;;;;;;;;10.81;100.00;102264.63;4924428;29;19934;-83
2023/10/16 11:44:01;;;;;;;;;;;;;;;10.83;100.00;102266.34;4909467;29;20413;-82
2023/10/16 11:46:51;;;;;;;;;;;;;;;10.85;100.00;102275.13;4921144;29;19946;-83
2023/10/16 11:49:37;;;;;;;;;;;;;;;10.83;100.00;102265.47;4907531;29;19930;-82
2023/10/16 11:52:27;;;;;;;;;;;;;;;10.80;100.00;102260.25;4922636;29;19977;-82
2023/10/16 11:55:13;;;;;;;;;;;;;;;10.78;100.00;102262.06;4920824;29;19977;-83
2023/10/16 11:57:58;;;;;;;;;;;;;;;10.76;100.00;102264.75;4922485;29;20045;-83
2023/10/16 12:00:53;;;;;;;;;;;;;;;10.78;100.00;102259.41;4900979;29;19930;-82
2023/10/16 12:03:39;;;;;;;;;;;;;;;10.80;100.00;102260.25;4911158;29;19961;-82
2023/10/16 12:06:25;;;;;;;;;;;;;;;10.83;100.00;102258.41;4926291;29;19931;-81
2023/10/16 12:09:13;;;;;;;;;;;;;;;10.86;100.00;102253.00;4927674;29;19993;-82
2023/10/16 12:11:59;;;;;;;;;;;;;;;10.88;100.00;102252.97;4925964;29;20948;-80
2023/10/16 12:14:44;;;;;;;;;;;;;;;10.91;100.00;102252.91;4927519;28;19930;-82
2023/10/16 12:17:30;;;;;;;;;;;;;;;10.90;100.00;102245.84;4927481;29;20037;-82
2023/10/16 12:20:16;;;;;;;;;;;;;;;10.91;100.00;102250.28;4927967;28;19940;-83
2023/10/16 12:23:04;;;;;;;;;;;;;;;10.95;100.00;102254.56;4926275;29;20028;-82
2023/10/16 12:25:49;;;;;;;;;;;;;;;10.98;100.00;102251.84;4911149;29;19985;-82
2023/10/16 12:28:35;;;;;;;;;;;;;;;10.99;100.00;102261.53;4925339;29;19937;-82
2023/10/16 12:31:21;;;;;;;;;;;;;;;10.99;100.00;102250.94;4912921;29;19968;-82
2023/10/16 12:34:11;;;;;;;;;;;;;;;11.03;100.00;102245.56;4928570;28;19942;-82
2023/10/16 12:36:57;;;;;;;;;;;;;;;11.06;100.00;102249.00;4926732;29;19931;-83
2023/10/16 12:39:45;;;;;;;;;;;;;;;11.10;100.00;102241.84;4927539;29;19938;-83
2023/10/16 12:42:31;;;;;;;;;;;;;;;11.12;100.00;102245.34;4927433;29;19931;-82
2023/10/16 12:45:17;;;;;;;;;;;;;;;11.13;100.00;102247.06;4913964;28;19934;-82
2023/10/16 12:48:03;;;;;;;;;;;;;;;11.13;100.00;102245.28;4925012;29;19937;-82
2023/10/16 12:50:49;;;;;;;;;;;;;;;11.16;100.00;102244.34;4925739;29;20843;-82
2023/10/16 12:53:35;;;;;;;;;;;;;;;11.17;100.00;102237.28;4927506;29;19969;-82
2023/10/16 12:56:22;;;;;;;;;;;;;;;11.17;100.00;102243.41;4914491;29;20846;-82
2023/10/16 12:59:08;;;;;;;;;;;;;;;11.19;100.00;102238.09;4912704;28;19937;-82
2023/10/16 13:01:54;;;;;;;;;;;;;;;11.20;100.00;102235.41;4924243;28;19926;-82
2023/10/16 13:04:39;;;;;;;;;;;;;;;11.18;100.00;102245.19;4922604;29;19935;-82
2023/10/16 13:07:26;;;;;;;;;;;;;;;11.19;100.00;102246.94;4910005;29;19933;-83
2023/10/16 13:10:31;;;;;;;;;;;;;;;11.18;100.00;102246.97;4915996;29;20029;-83
2023/10/16 13:13:20;;;;;;;;;;;;;;;11.17;100.00;102247.88;4913286;29;19926;-83
2023/10/16 13:16:07;;;;;;;;;;;;;;;11.15;100.00;102239.94;4908743;28;19930;-83
2023/10/16 13:18:59;;;;;;;;;;;;;;;11.12;100.00;102235.59;4923006;28;19937;-83
2023/10/16 13:21:46;;;;;;;;;;;;;;;11.12;100.00;102234.75;4912093;29;20398;-83
2023/10/16 13:24:32;;;;;;;;;;;;;;;11.12;100.00;102234.75;4926205;29;19927;-83
2023/10/16 13:27:20;;;;;;;;;;;;;;;11.13;100.00;102236.47;4910205;28;19930;-82
2023/10/16 13:30:07;;;;;;;;;;;;;;;11.12;100.00;102240.91;4925694;29;20654;-83
2023/10/16 13:32:54;;;;;;;;;;;;;;;11.13;100.00;102232.03;4922965;28;19923;-83
2023/10/16 13:35:39;;;;;;;;;;;;;;;11.13;100.00;102234.69;4919327;29;19931;-84
2023/10/16 13:38:26;;;;;;;;;;;;;;;11.12;100.00;102234.75;4921898;29;19931;-83
2023/10/16 13:41:18;;;;;;;;;;;;;;;11.12;100.00;102232.09;4922545;29;19930;-83
2023/10/16 13:44:06;;;;;;;;;;;;;;;11.11;100.00;102230.34;4923881;29;19939;-83
2023/10/16 13:46:52;;;;;;;;;;;;;;;11.10;100.00;102228.59;4907177;29;19963;-85
2023/10/16 13:49:38;;;;;;;;;;;;;;;11.10;100.00;102236.53;4908194;28;19931;-81
2023/10/16 13:52:23;;;;;;;;;;;;;;;11.11;100.00;102241.81;4923954;29;19931;-81
2023/10/16 13:55:12;;;;;;;;;;;;;;;11.08;100.00;102238.38;4925974;28;20065;-80
2023/10/16 13:57:58;;;;;;;;;;;;;;;11.05;100.00;102234.00;4909736;29;20026;-81
2023/10/16 14:00:47;;;;;;;;;;;;;;;11.02;100.00;102227.91;4912077;29;20504;-81
2023/10/16 14:03:33;;;;;;;;;;;;;;;11.02;100.00;102227.91;4924373;28;19937;-81
2023/10/16 14:06:22;;;;;;;;;;;;;;;10.98;100.00;102230.66;4923795;29;20148;-80
2023/10/16 14:09:11;;;;;;;;;;;;;;;10.96;100.00;102236.91;4898473;29;20696;-80
2023/10/16 14:12:00;;;;;;;;;;;;;;;10.95;100.00;102230.72;4921451;29;19934;-82
2023/10/16 14:14:51;;;;;;;;;;;;;;;10.94;100.00;102236.03;4908585;28;19970;-80
2023/10/16 14:17:38;;;;;;;;;;;;;;;10.92;100.00;102233.47;4910176;28;19931;-81
2023/10/16 14:20:36;;;;;;;;;;;;;;;10.90;100.00;102232.59;4918148;29;19931;-82
2023/10/16 14:23:32;;;;;;;;;;;;;;;10.90;100.00;102237.06;4921994;29;21138;-82
2023/10/16 14:26:24;;;;;;;;;;;;;;;10.89;100.00;102228.22;4910314;28;19934;-82
2023/10/16 14:29:10;;;;;;;;;;;;;;;10.89;100.00;102237.97;4907901;29;19934;-82
2023/10/16 14:31:56;;;;;;;;;;;;;;;10.87;100.00;102230.03;4909471;29;19931;-82
2023/10/16 14:34:42;;;;;;;;;;;;;;;10.87;100.00;102227.41;4921557;28;19937;-82
2023/10/16 14:37:29;;;;;;;;;;;;;;;10.86;100.00;102231.81;4924069;29;19930;-82
2023/10/16 14:40:15;;;;;;;;;;;;;;;10.86;100.00;102228.31;4924344;28;19965;-81
2023/10/16 14:43:03;;;;;;;;;;;;;;;10.84;100.00;102225.69;4924814;28;19930;-81
2023/10/16 14:45:50;;;;;;;;;;;;;;;10.82;100.00;102222.22;4922781;29;20533;-81
2023/10/16 14:48:54;;;;;;;;;;;;;;;10.80;100.00;102216.09;4908163;29;19923;-82
2023/10/16 14:51:39;;;;;;;;;;;;;;;10.79;100.00;102219.63;4923532;28;20080;-81
2023/10/16 14:54:25;;;;;;;;;;;;;;;10.78;100.00;102219.69;4907801;29;19930;-81
2023/10/16 14:57:11;;;;;;;;;;;;;;;10.76;100.00;102216.19;4898227;29;19930;-81
2023/10/16 14:59:57;;;;;;;;;;;;;;;10.72;100.00;102212.75;4906030;29;22005;-81
2023/10/16 15:02:44;;;;;;;;;;;;;;;10.70;100.00;102211.91;4918909;28;20457;-81
2023/10/16 15:05:29;;;;;;;;;;;;;;;10.67;100.00;102207.56;4923324;29;20593;-81
2023/10/16 15:08:15;;;;;;;;;;;;;;;10.65;100.00;102211.16;4908454;29;19985;-81
2023/10/16 15:11:01;;;;;;;;;;;;;;;10.61;100.00;102205.06;4913558;29;19930;-81
2023/10/16 15:13:47;;;;;;;;;;;;;;;10.59;100.00;102207.72;4923794;29;20833;-82
2023/10/16 15:16:32;;;;;;;;;;;;;;;10.58;100.00;102213.09;4920390;29;19922;-80
2023/10/16 15:19:19;;;;;;;;;;;;;;;10.55;100.00;102207.84;4922463;28;19935;-81
2023/10/16 15:22:07;;;;;;;;;;;;;;;10.53;100.00;102209.66;4907201;29;20477;-81
2023/10/16 15:24:53;;;;;;;;;;;;;;;10.50;100.00;102213.25;4923506;29;19926;-81
2023/10/16 15:27:46;;;;;;;;;;;;;;;10.48;100.00;102207.13;4924160;29;19966;-81
2023/10/16 15:30:33;;;;;;;;;;;;;;;10.45;100.00;102208.06;4909600;28;20173;-81
2023/10/16 15:33:20;;;;;;;;;;;;;;;10.44;100.00;102208.97;4909900;29;19926;-81
2023/10/16 15:36:07;;;;;;;;;;;;;;;10.41;100.00;102205.50;4928749;28;19926;-81
2023/10/16 15:38:52;;;;;;;;;;;;;;;10.38;100.00;102208.19;4927979;29;19961;-81
2023/10/16 15:41:38;;;;;;;;;;;;;;;10.33;100.00;102203.03;4896863;29;19926;-81
2023/10/16 15:44:24;;;;;;;;;;;;;;;10.30;100.00;102211.91;4926982;28;19981;-82